sensor_id;sensor_type;location;lat;lon;timestamp;P1;durP1;ratioP1;P2;durP2;ratioP2
28960;SDS011;16068;42.896;20.868;2024-01-16T00:00:35;43.25;;;22.08;;
28960;SDS011;16068;42.896;20.868;2024-01-16T00:03:21;49.47;;;22.85;;
28960;SDS011;16068;42.896;20.868;2024-01-16T00:06:07;46.40;;;23.67;;
28960;SDS011;16068;42.896;20.868;2024-01-16T00:08:54;43.85;;;23.98;;
28960;SDS011;16068;42.896;20.868;2024-01-16T00:11:41;43.95;;;23.05;;
28960;SDS011;16068;42.896;20.868;2024-01-16T00:14:35;44.42;;;23.02;;
28960;SDS011;16068;42.896;20.868;2024-01-16T00:17:22;52.22;;;25.08;;
28960;SDS011;16068;42.896;20.868;2024-01-16T00:20:08;47.15;;;25.33;;
28960;SDS011;16068;42.896;20.868;2024-01-16T00:22:54;41.83;;;22.48;;
28960;SDS011;16068;42.896;20.868;2024-01-16T00:25:41;45.05;;;24.48;;
28960;SDS011;16068;42.896;20.868;2024-01-16T00:28:27;53.72;;;27.00;;
28960;SDS011;16068;42.896;20.868;2024-01-16T00:31:14;53.78;;;28.00;;
28960;SDS011;16068;42.896;20.868;2024-01-16T00:34:00;51.80;;;28.13;;
28960;SDS011;16068;42.896;20.868;2024-01-16T00:36:46;56.03;;;27.40;;
28960;SDS011;16068;42.896;20.868;2024-01-16T00:39:32;52.63;;;29.10;;
28960;SDS011;16068;42.896;20.868;2024-01-16T00:42:21;50.97;;;28.08;;
28960;SDS011;16068;42.896;20.868;2024-01-16T00:45:07;59.10;;;28.55;;
28960;SDS011;16068;42.896;20.868;2024-01-16T00:47:53;56.90;;;31.73;;
28960;SDS011;16068;42.896;20.868;2024-01-16T00:50:39;62.17;;;33.50;;
28960;SDS011;16068;42.896;20.868;2024-01-16T00:53:26;64.85;;;32.67;;
28960;SDS011;16068;42.896;20.868;2024-01-16T00:56:12;63.85;;;34.03;;
28960;SDS011;16068;42.896;20.868;2024-01-16T00:58:58;55.50;;;31.27;;
28960;SDS011;16068;42.896;20.868;2024-01-16T01:01:44;54.22;;;29.17;;
28960;SDS011;16068;42.896;20.868;2024-01-16T01:04:32;48.03;;;24.45;;
28960;SDS011;16068;42.896;20.868;2024-01-16T01:07:19;43.53;;;23.10;;
28960;SDS011;16068;42.896;20.868;2024-01-16T01:10:05;44.28;;;25.20;;
28960;SDS011;16068;42.896;20.868;2024-01-16T01:12:51;51.58;;;28.35;;
28960;SDS011;16068;42.896;20.868;2024-01-16T01:15:38;68.28;;;31.50;;
28960;SDS011;16068;42.896;20.868;2024-01-16T01:18:25;55.70;;;28.48;;
28960;SDS011;16068;42.896;20.868;2024-01-16T01:21:12;51.97;;;26.55;;
28960;SDS011;16068;42.896;20.868;2024-01-16T01:23:58;42.67;;;23.23;;
28960;SDS011;16068;42.896;20.868;2024-01-16T01:26:43;42.20;;;23.10;;
28960;SDS011;16068;42.896;20.868;2024-01-16T01:29:30;44.80;;;22.35;;
28960;SDS011;16068;42.896;20.868;2024-01-16T01:32:16;33.10;;;18.98;;
28960;SDS011;16068;42.896;20.868;2024-01-16T01:35:03;29.42;;;15.85;;
28960;SDS011;16068;42.896;20.868;2024-01-16T01:37:50;33.15;;;16.75;;
28960;SDS011;16068;42.896;20.868;2024-01-16T01:40:36;33.92;;;18.15;;
28960;SDS011;16068;42.896;20.868;2024-01-16T01:43:25;36.38;;;19.42;;
28960;SDS011;16068;42.896;20.868;2024-01-16T01:46:16;31.35;;;16.33;;
28960;SDS011;16068;42.896;20.868;2024-01-16T01:49:05;28.83;;;14.27;;
28960;SDS011;16068;42.896;20.868;2024-01-16T01:51:51;32.40;;;13.40;;
28960;SDS011;16068;42.896;20.868;2024-01-16T01:54:37;28.00;;;12.57;;
28960;SDS011;16068;42.896;20.868;2024-01-16T01:57:23;27.27;;;11.95;;
28960;SDS011;16068;42.896;20.868;2024-01-16T02:00:10;30.85;;;11.43;;
28960;SDS011;16068;42.896;20.868;2024-01-16T02:02:59;22.40;;;11.73;;
28960;SDS011;16068;42.896;20.868;2024-01-16T02:05:48;27.25;;;12.13;;
28960;SDS011;16068;42.896;20.868;2024-01-16T02:08:35;18.50;;;11.02;;
28960;SDS011;16068;42.896;20.868;2024-01-16T02:11:22;18.60;;;9.98;;
28960;SDS011;16068;42.896;20.868;2024-01-16T02:14:09;16.98;;;10.10;;
28960;SDS011;16068;42.896;20.868;2024-01-16T02:16:56;12.07;;;7.65;;
28960;SDS011;16068;42.896;20.868;2024-01-16T02:19:42;13.45;;;6.05;;
28960;SDS011;16068;42.896;20.868;2024-01-16T02:22:29;11.88;;;5.15;;
28960;SDS011;16068;42.896;20.868;2024-01-16T02:25:18;34.28;;;4.82;;
28960;SDS011;16068;42.896;20.868;2024-01-16T02:28:04;17.92;;;4.53;;
28960;SDS011;16068;42.896;20.868;2024-01-16T02:30:50;9.45;;;4.07;;
28960;SDS011;16068;42.896;20.868;2024-01-16T02:33:38;10.98;;;4.65;;
28960;SDS011;16068;42.896;20.868;2024-01-16T02:36:25;8.75;;;4.30;;
28960;SDS011;16068;42.896;20.868;2024-01-16T02:39:11;5.72;;;3.72;;
28960;SDS011;16068;42.896;20.868;2024-01-16T02:41:57;17.95;;;3.08;;
28960;SDS011;16068;42.896;20.868;2024-01-16T02:44:44;6.38;;;3.03;;
28960;SDS011;16068;42.896;20.868;2024-01-16T02:47:30;7.60;;;2.90;;
28960;SDS011;16068;42.896;20.868;2024-01-16T02:50:16;6.05;;;2.33;;
28960;SDS011;16068;42.896;20.868;2024-01-16T02:53:03;5.43;;;2.42;;
28960;SDS011;16068;42.896;20.868;2024-01-16T02:55:49;3.60;;;1.75;;
28960;SDS011;16068;42.896;20.868;2024-01-16T02:58:37;6.03;;;2.42;;
28960;SDS011;16068;42.896;20.868;2024-01-16T03:01:23;3.10;;;1.58;;
28960;SDS011;16068;42.896;20.868;2024-01-16T03:04:09;3.75;;;1.92;;
28960;SDS011;16068;42.896;20.868;2024-01-16T03:06:55;2.70;;;1.65;;
28960;SDS011;16068;42.896;20.868;2024-01-16T03:09:43;3.97;;;1.83;;
28960;SDS011;16068;42.896;20.868;2024-01-16T03:12:29;3.20;;;1.98;;
28960;SDS011;16068;42.896;20.868;2024-01-16T03:15:16;4.95;;;2.17;;
28960;SDS011;16068;42.896;20.868;2024-01-16T03:18:01;5.50;;;1.88;;
28960;SDS011;16068;42.896;20.868;2024-01-16T03:20:48;4.30;;;2.38;;
28960;SDS011;16068;42.896;20.868;2024-01-16T03:23:34;4.70;;;2.30;;
28960;SDS011;16068;42.896;20.868;2024-01-16T03:26:20;10.38;;;2.35;;
28960;SDS011;16068;42.896;20.868;2024-01-16T03:29:06;3.63;;;1.70;;
28960;SDS011;16068;42.896;20.868;2024-01-16T03:31:52;5.18;;;1.60;;
28960;SDS011;16068;42.896;20.868;2024-01-16T03:34:38;12.60;;;1.95;;
28960;SDS011;16068;42.896;20.868;2024-01-16T03:37:26;3.15;;;1.60;;
28960;SDS011;16068;42.896;20.868;2024-01-16T03:40:12;2.22;;;1.10;;
28960;SDS011;16068;42.896;20.868;2024-01-16T03:42:58;3.05;;;1.20;;
28960;SDS011;16068;42.896;20.868;2024-01-16T03:45:45;8.57;;;1.35;;
28960;SDS011;16068;42.896;20.868;2024-01-16T03:48:31;3.75;;;1.20;;
28960;SDS011;16068;42.896;20.868;2024-01-16T03:51:17;9.90;;;1.30;;
28960;SDS011;16068;42.896;20.868;2024-01-16T03:54:05;4.35;;;1.15;;
28960;SDS011;16068;42.896;20.868;2024-01-16T03:56:51;9.30;;;1.17;;
28960;SDS011;16068;42.896;20.868;2024-01-16T03:59:38;2.63;;;1.10;;
28960;SDS011;16068;42.896;20.868;2024-01-16T04:02:25;1.65;;;0.80;;
28960;SDS011;16068;42.896;20.868;2024-01-16T04:05:12;2.92;;;0.90;;
28960;SDS011;16068;42.896;20.868;2024-01-16T04:07:58;2.40;;;0.85;;
28960;SDS011;16068;42.896;20.868;2024-01-16T04:10:44;1.58;;;0.95;;
28960;SDS011;16068;42.896;20.868;2024-01-16T04:13:30;4.25;;;1.00;;
28960;SDS011;16068;42.896;20.868;2024-01-16T04:16:16;3.28;;;1.20;;
28960;SDS011;16068;42.896;20.868;2024-01-16T04:19:03;2.13;;;0.90;;
28960;SDS011;16068;42.896;20.868;2024-01-16T04:21:49;2.83;;;0.82;;
28960;SDS011;16068;42.896;20.868;2024-01-16T04:24:35;1.63;;;0.80;;
28960;SDS011;16068;42.896;20.868;2024-01-16T04:27:21;1.55;;;0.85;;
28960;SDS011;16068;42.896;20.868;2024-01-16T04:30:08;3.75;;;0.90;;
28960;SDS011;16068;42.896;20.868;2024-01-16T04:32:55;4.07;;;0.98;;
28960;SDS011;16068;42.896;20.868;2024-01-16T04:35:41;1.90;;;0.90;;
28960;SDS011;16068;42.896;20.868;2024-01-16T04:38:27;2.15;;;1.00;;
28960;SDS011;16068;42.896;20.868;2024-01-16T04:41:13;1.90;;;0.90;;
28960;SDS011;16068;42.896;20.868;2024-01-16T04:43:59;2.30;;;0.80;;
28960;SDS011;16068;42.896;20.868;2024-01-16T04:46:46;6.35;;;1.30;;
28960;SDS011;16068;42.896;20.868;2024-01-16T04:49:32;1.50;;;0.70;;
28960;SDS011;16068;42.896;20.868;2024-01-16T04:52:19;4.60;;;0.70;;
28960;SDS011;16068;42.896;20.868;2024-01-16T04:55:06;1.73;;;0.82;;
28960;SDS011;16068;42.896;20.868;2024-01-16T04:57:55;10.45;;;0.80;;
28960;SDS011;16068;42.896;20.868;2024-01-16T05:00:44;5.45;;;1.08;;
28960;SDS011;16068;42.896;20.868;2024-01-16T05:03:32;8.63;;;0.93;;
28960;SDS011;16068;42.896;20.868;2024-01-16T05:06:19;2.17;;;0.80;;
28960;SDS011;16068;42.896;20.868;2024-01-16T05:09:09;5.18;;;0.80;;
28960;SDS011;16068;42.896;20.868;2024-01-16T05:11:56;1.83;;;0.70;;
28960;SDS011;16068;42.896;20.868;2024-01-16T05:14:42;1.35;;;0.85;;
28960;SDS011;16068;42.896;20.868;2024-01-16T05:17:29;10.98;;;1.20;;
28960;SDS011;16068;42.896;20.868;2024-01-16T05:20:16;3.92;;;0.90;;
28960;SDS011;16068;42.896;20.868;2024-01-16T05:23:02;3.08;;;1.00;;
28960;SDS011;16068;42.896;20.868;2024-01-16T05:25:49;5.82;;;1.20;;
28960;SDS011;16068;42.896;20.868;2024-01-16T05:28:35;1.13;;;0.77;;
28960;SDS011;16068;42.896;20.868;2024-01-16T05:31:21;1.67;;;0.75;;
28960;SDS011;16068;42.896;20.868;2024-01-16T05:34:07;5.72;;;0.73;;
28960;SDS011;16068;42.896;20.868;2024-01-16T05:36:54;3.95;;;0.77;;
28960;SDS011;16068;42.896;20.868;2024-01-16T05:39:40;1.15;;;0.60;;
28960;SDS011;16068;42.896;20.868;2024-01-16T05:42:26;1.35;;;0.77;;
28960;SDS011;16068;42.896;20.868;2024-01-16T05:45:12;1.48;;;0.70;;
28960;SDS011;16068;42.896;20.868;2024-01-16T05:48:01;4.65;;;0.75;;
28960;SDS011;16068;42.896;20.868;2024-01-16T05:50:48;1.20;;;0.75;;
28960;SDS011;16068;42.896;20.868;2024-01-16T05:53:34;1.00;;;0.73;;
28960;SDS011;16068;42.896;20.868;2024-01-16T05:56:20;1.58;;;0.80;;
28960;SDS011;16068;42.896;20.868;2024-01-16T05:59:06;2.60;;;1.00;;
28960;SDS011;16068;42.896;20.868;2024-01-16T06:01:53;1.77;;;0.90;;
28960;SDS011;16068;42.896;20.868;2024-01-16T06:04:39;0.57;;;0.50;;
28960;SDS011;16068;42.896;20.868;2024-01-16T06:10:45;2.65;;;1.00;;
28960;SDS011;16068;42.896;20.868;2024-01-16T06:13:36;3.85;;;1.27;;
28960;SDS011;16068;42.896;20.868;2024-01-16T06:16:22;3.65;;;1.25;;
28960;SDS011;16068;42.896;20.868;2024-01-16T06:19:12;16.38;;;1.92;;
28960;SDS011;16068;42.896;20.868;2024-01-16T06:21:58;1.77;;;0.80;;
28960;SDS011;16068;42.896;20.868;2024-01-16T06:24:44;1.60;;;1.02;;
28960;SDS011;16068;42.896;20.868;2024-01-16T06:27:30;2.92;;;1.20;;
28960;SDS011;16068;42.896;20.868;2024-01-16T06:34:13;2.08;;;1.00;;
28960;SDS011;16068;42.896;20.868;2024-01-16T06:36:59;2.17;;;1.45;;
28960;SDS011;16068;42.896;20.868;2024-01-16T06:39:46;2.25;;;1.20;;
28960;SDS011;16068;42.896;20.868;2024-01-16T06:42:32;3.33;;;1.20;;
28960;SDS011;16068;42.896;20.868;2024-01-16T06:45:19;3.15;;;1.25;;
28960;SDS011;16068;42.896;20.868;2024-01-16T06:48:04;1.65;;;1.02;;
28960;SDS011;16068;42.896;20.868;2024-01-16T06:50:51;1.70;;;1.00;;
28960;SDS011;16068;42.896;20.868;2024-01-16T06:53:37;1.40;;;1.02;;
28960;SDS011;16068;42.896;20.868;2024-01-16T06:56:23;1.33;;;0.70;;
28960;SDS011;16068;42.896;20.868;2024-01-16T06:59:09;3.33;;;2.00;;
28960;SDS011;16068;42.896;20.868;2024-01-16T07:01:57;4.55;;;1.83;;
28960;SDS011;16068;42.896;20.868;2024-01-16T07:04:43;2.25;;;1.00;;
28960;SDS011;16068;42.896;20.868;2024-01-16T07:07:30;2.58;;;1.00;;
28960;SDS011;16068;42.896;20.868;2024-01-16T07:10:16;1.92;;;0.90;;
28960;SDS011;16068;42.896;20.868;2024-01-16T07:13:08;5.63;;;2.30;;
28960;SDS011;16068;42.896;20.868;2024-01-16T07:15:55;6.10;;;1.20;;
28960;SDS011;16068;42.896;20.868;2024-01-16T07:18:41;2.47;;;1.17;;
28960;SDS011;16068;42.896;20.868;2024-01-16T07:21:32;1.55;;;1.00;;
28960;SDS011;16068;42.896;20.868;2024-01-16T07:24:19;2.78;;;1.02;;
28960;SDS011;16068;42.896;20.868;2024-01-16T07:27:04;4.07;;;2.08;;
28960;SDS011;16068;42.896;20.868;2024-01-16T07:29:50;2.42;;;1.10;;
28960;SDS011;16068;42.896;20.868;2024-01-16T07:32:36;2.20;;;1.38;;
28960;SDS011;16068;42.896;20.868;2024-01-16T07:35:23;2.88;;;1.42;;
28960;SDS011;16068;42.896;20.868;2024-01-16T07:38:09;4.72;;;2.10;;
28960;SDS011;16068;42.896;20.868;2024-01-16T07:40:55;3.70;;;1.67;;
28960;SDS011;16068;42.896;20.868;2024-01-16T07:43:41;2.28;;;1.10;;
28960;SDS011;16068;42.896;20.868;2024-01-16T07:46:27;2.65;;;1.27;;
28960;SDS011;16068;42.896;20.868;2024-01-16T07:49:14;3.03;;;1.33;;
28960;SDS011;16068;42.896;20.868;2024-01-16T07:52:00;2.95;;;1.40;;
28960;SDS011;16068;42.896;20.868;2024-01-16T07:54:46;3.78;;;2.00;;
28960;SDS011;16068;42.896;20.868;2024-01-16T07:57:32;2.40;;;1.13;;
28960;SDS011;16068;42.896;20.868;2024-01-16T08:00:18;3.35;;;1.33;;
28960;SDS011;16068;42.896;20.868;2024-01-16T08:03:08;9.15;;;2.15;;
28960;SDS011;16068;42.896;20.868;2024-01-16T08:05:57;3.20;;;1.55;;
28960;SDS011;16068;42.896;20.868;2024-01-16T08:08:45;4.00;;;1.50;;
28960;SDS011;16068;42.896;20.868;2024-01-16T08:11:32;4.80;;;2.15;;
28960;SDS011;16068;42.896;20.868;2024-01-16T08:14:20;8.32;;;3.90;;
28960;SDS011;16068;42.896;20.868;2024-01-16T08:17:06;7.13;;;1.40;;
28960;SDS011;16068;42.896;20.868;2024-01-16T08:19:52;2.70;;;1.17;;
28960;SDS011;16068;42.896;20.868;2024-01-16T08:22:38;3.10;;;1.58;;
28960;SDS011;16068;42.896;20.868;2024-01-16T08:25:25;8.18;;;2.00;;
28960;SDS011;16068;42.896;20.868;2024-01-16T08:28:10;6.70;;;3.20;;
28960;SDS011;16068;42.896;20.868;2024-01-16T08:30:57;12.18;;;4.93;;
28960;SDS011;16068;42.896;20.868;2024-01-16T08:33:44;36.00;;;17.60;;
28960;SDS011;16068;42.896;20.868;2024-01-16T08:36:34;22.90;;;11.20;;
28960;SDS011;16068;42.896;20.868;2024-01-16T08:39:20;3.65;;;1.83;;
28960;SDS011;16068;42.896;20.868;2024-01-16T08:45:26;3.20;;;2.17;;
28960;SDS011;16068;42.896;20.868;2024-01-16T08:48:12;4.63;;;2.60;;
28960;SDS011;16068;42.896;20.868;2024-01-16T08:51:00;13.50;;;7.05;;
28960;SDS011;16068;42.896;20.868;2024-01-16T08:53:53;8.25;;;4.20;;
28960;SDS011;16068;42.896;20.868;2024-01-16T08:56:39;49.05;;;23.52;;
28960;SDS011;16068;42.896;20.868;2024-01-16T08:59:37;31.25;;;15.90;;
28960;SDS011;16068;42.896;20.868;2024-01-16T09:02:24;13.43;;;7.25;;
28960;SDS011;16068;42.896;20.868;2024-01-16T09:05:14;12.68;;;6.65;;
28960;SDS011;16068;42.896;20.868;2024-01-16T09:08:01;5.38;;;3.30;;
28960;SDS011;16068;42.896;20.868;2024-01-16T09:10:48;5.00;;;2.20;;
28960;SDS011;16068;42.896;20.868;2024-01-16T09:13:35;7.95;;;2.60;;
28960;SDS011;16068;42.896;20.868;2024-01-16T09:16:22;4.03;;;2.17;;
28960;SDS011;16068;42.896;20.868;2024-01-16T09:19:15;6.10;;;2.17;;
28960;SDS011;16068;42.896;20.868;2024-01-16T09:22:01;7.18;;;3.38;;
28960;SDS011;16068;42.896;20.868;2024-01-16T09:24:52;5.82;;;3.13;;
28960;SDS011;16068;42.896;20.868;2024-01-16T09:27:38;31.10;;;8.05;;
28960;SDS011;16068;42.896;20.868;2024-01-16T09:30:31;10.48;;;4.50;;
28960;SDS011;16068;42.896;20.868;2024-01-16T09:33:18;38.15;;;14.55;;
28960;SDS011;16068;42.896;20.868;2024-01-16T09:36:09;29.67;;;12.07;;
28960;SDS011;16068;42.896;20.868;2024-01-16T09:38:55;14.15;;;5.30;;
28960;SDS011;16068;42.896;20.868;2024-01-16T09:41:41;6.47;;;2.97;;
28960;SDS011;16068;42.896;20.868;2024-01-16T09:44:28;4.05;;;2.55;;
28960;SDS011;16068;42.896;20.868;2024-01-16T09:47:14;8.25;;;3.80;;
28960;SDS011;16068;42.896;20.868;2024-01-16T09:50:01;8.93;;;3.67;;
28960;SDS011;16068;42.896;20.868;2024-01-16T10:01:15;4.38;;;1.80;;
28960;SDS011;16068;42.896;20.868;2024-01-16T10:04:01;3.75;;;2.15;;
28960;SDS011;16068;42.896;20.868;2024-01-16T10:15:54;7.63;;;2.90;;
28960;SDS011;16068;42.896;20.868;2024-01-16T10:18:41;4.63;;;2.00;;
28960;SDS011;16068;42.896;20.868;2024-01-16T10:21:29;9.38;;;2.22;;
28960;SDS011;16068;42.896;20.868;2024-01-16T10:24:28;11.45;;;4.57;;
28960;SDS011;16068;42.896;20.868;2024-01-16T10:27:17;9.93;;;4.88;;
28960;SDS011;16068;42.896;20.868;2024-01-16T10:30:03;7.28;;;3.55;;
28960;SDS011;16068;42.896;20.868;2024-01-16T10:36:54;15.65;;;4.72;;
28960;SDS011;16068;42.896;20.868;2024-01-16T10:40:16;5.35;;;2.90;;
28960;SDS011;16068;42.896;20.868;2024-01-16T10:43:08;2.90;;;2.03;;
28960;SDS011;16068;42.896;20.868;2024-01-16T10:50:20;6.20;;;2.65;;
28960;SDS011;16068;42.896;20.868;2024-01-16T10:57:16;11.35;;;3.88;;
28960;SDS011;16068;42.896;20.868;2024-01-16T11:00:03;13.80;;;4.25;;
28960;SDS011;16068;42.896;20.868;2024-01-16T11:03:01;6.80;;;2.90;;
28960;SDS011;16068;42.896;20.868;2024-01-16T11:05:51;4.38;;;2.72;;
28960;SDS011;16068;42.896;20.868;2024-01-16T11:08:38;3.70;;;1.90;;
28960;SDS011;16068;42.896;20.868;2024-01-16T11:11:24;5.72;;;2.30;;
28960;SDS011;16068;42.896;20.868;2024-01-16T11:14:13;11.95;;;2.80;;
28960;SDS011;16068;42.896;20.868;2024-01-16T11:20:23;25.20;;;4.40;;
28960;SDS011;16068;42.896;20.868;2024-01-16T11:24:02;30.02;;;4.53;;
28960;SDS011;16068;42.896;20.868;2024-01-16T11:26:49;18.50;;;2.20;;
28960;SDS011;16068;42.896;20.868;2024-01-16T11:29:35;15.13;;;3.33;;
28960;SDS011;16068;42.896;20.868;2024-01-16T11:32:33;5.72;;;2.50;;
28960;SDS011;16068;42.896;20.868;2024-01-16T11:35:34;14.18;;;6.93;;
28960;SDS011;16068;42.896;20.868;2024-01-16T11:38:24;23.88;;;10.52;;
28960;SDS011;16068;42.896;20.868;2024-01-16T11:41:24;21.27;;;9.07;;
28960;SDS011;16068;42.896;20.868;2024-01-16T11:44:45;19.45;;;8.88;;
28960;SDS011;16068;42.896;20.868;2024-01-16T11:47:40;16.45;;;8.60;;
28960;SDS011;16068;42.896;20.868;2024-01-16T11:50:28;30.48;;;10.07;;
28960;SDS011;16068;42.896;20.868;2024-01-16T12:02:38;11.25;;;5.57;;
28960;SDS011;16068;42.896;20.868;2024-01-16T12:05:38;18.10;;;5.35;;
28960;SDS011;16068;42.896;20.868;2024-01-16T12:08:25;10.13;;;5.28;;
28960;SDS011;16068;42.896;20.868;2024-01-16T12:11:11;16.95;;;6.28;;
28960;SDS011;16068;42.896;20.868;2024-01-16T12:14:03;9.90;;;5.28;;
28960;SDS011;16068;42.896;20.868;2024-01-16T12:16:52;13.68;;;6.82;;
28960;SDS011;16068;42.896;20.868;2024-01-16T12:19:40;15.52;;;6.35;;
28960;SDS011;16068;42.896;20.868;2024-01-16T12:22:31;20.20;;;5.95;;
28960;SDS011;16068;42.896;20.868;2024-01-16T12:25:20;13.13;;;5.78;;
28960;SDS011;16068;42.896;20.868;2024-01-16T12:28:29;19.77;;;5.55;;
28960;SDS011;16068;42.896;20.868;2024-01-16T12:31:18;19.13;;;5.03;;
28960;SDS011;16068;42.896;20.868;2024-01-16T12:36:51;12.05;;;6.35;;
28960;SDS011;16068;42.896;20.868;2024-01-16T12:39:52;10.73;;;4.75;;
28960;SDS011;16068;42.896;20.868;2024-01-16T12:42:38;13.50;;;5.18;;
28960;SDS011;16068;42.896;20.868;2024-01-16T12:45:25;8.60;;;4.80;;
28960;SDS011;16068;42.896;20.868;2024-01-16T12:48:11;6.57;;;4.20;;
28960;SDS011;16068;42.896;20.868;2024-01-16T12:51:06;13.43;;;4.60;;
28960;SDS011;16068;42.896;20.868;2024-01-16T12:53:52;12.73;;;4.93;;
28960;SDS011;16068;42.896;20.868;2024-01-16T12:56:40;14.23;;;5.43;;
28960;SDS011;16068;42.896;20.868;2024-01-16T12:59:29;12.15;;;5.85;;
28960;SDS011;16068;42.896;20.868;2024-01-16T13:02:20;11.95;;;5.30;;
28960;SDS011;16068;42.896;20.868;2024-01-16T13:05:10;13.82;;;5.30;;
28960;SDS011;16068;42.896;20.868;2024-01-16T13:08:05;24.70;;;6.05;;
28960;SDS011;16068;42.896;20.868;2024-01-16T13:11:07;16.30;;;6.07;;
28960;SDS011;16068;42.896;20.868;2024-01-16T13:14:00;12.55;;;5.63;;
28960;SDS011;16068;42.896;20.868;2024-01-16T13:16:52;48.03;;;24.30;;
28960;SDS011;16068;42.896;20.868;2024-01-16T13:19:43;16.42;;;7.25;;
28960;SDS011;16068;42.896;20.868;2024-01-16T13:22:29;12.13;;;5.70;;
28960;SDS011;16068;42.896;20.868;2024-01-16T13:25:29;12.10;;;5.35;;
28960;SDS011;16068;42.896;20.868;2024-01-16T13:28:16;13.77;;;5.53;;
28960;SDS011;16068;42.896;20.868;2024-01-16T13:31:07;13.30;;;7.22;;
28960;SDS011;16068;42.896;20.868;2024-01-16T13:33:52;54.88;;;28.38;;
28960;SDS011;16068;42.896;20.868;2024-01-16T13:36:39;22.33;;;8.07;;
28960;SDS011;16068;42.896;20.868;2024-01-16T13:39:45;21.58;;;6.18;;
28960;SDS011;16068;42.896;20.868;2024-01-16T13:42:35;22.98;;;9.38;;
28960;SDS011;16068;42.896;20.868;2024-01-16T13:45:21;20.33;;;8.90;;
28960;SDS011;16068;42.896;20.868;2024-01-16T13:48:08;18.92;;;6.45;;
28960;SDS011;16068;42.896;20.868;2024-01-16T13:50:56;15.88;;;6.88;;
28960;SDS011;16068;42.896;20.868;2024-01-16T13:53:42;14.77;;;6.00;;
28960;SDS011;16068;42.896;20.868;2024-01-16T13:56:28;13.95;;;4.88;;
28960;SDS011;16068;42.896;20.868;2024-01-16T13:59:35;20.77;;;5.97;;
28960;SDS011;16068;42.896;20.868;2024-01-16T14:02:22;10.30;;;5.18;;
28960;SDS011;16068;42.896;20.868;2024-01-16T14:10:15;11.20;;;5.50;;
28960;SDS011;16068;42.896;20.868;2024-01-16T14:13:01;10.73;;;4.88;;
28960;SDS011;16068;42.896;20.868;2024-01-16T14:15:50;16.10;;;5.90;;
28960;SDS011;16068;42.896;20.868;2024-01-16T14:18:36;49.97;;;5.30;;
28960;SDS011;16068;42.896;20.868;2024-01-16T14:21:24;31.25;;;6.00;;
28960;SDS011;16068;42.896;20.868;2024-01-16T14:24:11;573.15;;;31.13;;
28960;SDS011;16068;42.896;20.868;2024-01-16T14:26:57;29.88;;;5.63;;
28960;SDS011;16068;42.896;20.868;2024-01-16T14:29:44;15.77;;;5.32;;
28960;SDS011;16068;42.896;20.868;2024-01-16T14:32:30;18.80;;;7.60;;
28960;SDS011;16068;42.896;20.868;2024-01-16T14:35:16;17.65;;;6.55;;
28960;SDS011;16068;42.896;20.868;2024-01-16T14:38:03;14.23;;;5.20;;
28960;SDS011;16068;42.896;20.868;2024-01-16T14:40:49;12.57;;;5.90;;
28960;SDS011;16068;42.896;20.868;2024-01-16T14:43:38;19.85;;;9.00;;
28960;SDS011;16068;42.896;20.868;2024-01-16T14:46:23;20.15;;;7.50;;
28960;SDS011;16068;42.896;20.868;2024-01-16T14:49:10;28.75;;;6.88;;
28960;SDS011;16068;42.896;20.868;2024-01-16T14:51:57;18.63;;;7.10;;
28960;SDS011;16068;42.896;20.868;2024-01-16T14:54:46;23.17;;;6.05;;
28960;SDS011;16068;42.896;20.868;2024-01-16T14:57:33;22.25;;;9.23;;
28960;SDS011;16068;42.896;20.868;2024-01-16T15:00:27;16.65;;;7.05;;
28960;SDS011;16068;42.896;20.868;2024-01-16T15:03:13;20.13;;;8.05;;
28960;SDS011;16068;42.896;20.868;2024-01-16T15:06:00;37.13;;;13.90;;
28960;SDS011;16068;42.896;20.868;2024-01-16T15:08:49;22.25;;;7.43;;
28960;SDS011;16068;42.896;20.868;2024-01-16T15:11:35;27.70;;;8.55;;
28960;SDS011;16068;42.896;20.868;2024-01-16T15:14:21;46.97;;;16.67;;
28960;SDS011;16068;42.896;20.868;2024-01-16T15:17:08;35.22;;;11.63;;
28960;SDS011;16068;42.896;20.868;2024-01-16T15:19:53;27.58;;;11.52;;
28960;SDS011;16068;42.896;20.868;2024-01-16T15:22:40;33.78;;;11.45;;
28960;SDS011;16068;42.896;20.868;2024-01-16T15:25:33;18.90;;;9.88;;
28960;SDS011;16068;42.896;20.868;2024-01-16T15:28:19;25.15;;;11.27;;
28960;SDS011;16068;42.896;20.868;2024-01-16T15:31:06;26.98;;;10.02;;
28960;SDS011;16068;42.896;20.868;2024-01-16T15:33:53;21.25;;;10.23;;
28960;SDS011;16068;42.896;20.868;2024-01-16T15:36:41;26.95;;;13.15;;
28960;SDS011;16068;42.896;20.868;2024-01-16T15:39:27;36.97;;;16.33;;
28960;SDS011;16068;42.896;20.868;2024-01-16T15:42:13;35.53;;;16.35;;
28960;SDS011;16068;42.896;20.868;2024-01-16T15:44:59;40.63;;;17.75;;
28960;SDS011;16068;42.896;20.868;2024-01-16T15:47:45;46.53;;;17.20;;
28960;SDS011;16068;42.896;20.868;2024-01-16T15:50:31;37.95;;;16.33;;
28960;SDS011;16068;42.896;20.868;2024-01-16T15:53:19;49.20;;;16.30;;
28960;SDS011;16068;42.896;20.868;2024-01-16T15:56:05;32.72;;;14.60;;
28960;SDS011;16068;42.896;20.868;2024-01-16T15:58:51;32.28;;;13.35;;
28960;SDS011;16068;42.896;20.868;2024-01-16T16:01:38;30.20;;;12.43;;
28960;SDS011;16068;42.896;20.868;2024-01-16T16:04:24;26.63;;;12.13;;
28960;SDS011;16068;42.896;20.868;2024-01-16T16:07:10;26.35;;;11.68;;
28960;SDS011;16068;42.896;20.868;2024-01-16T16:09:56;35.25;;;13.70;;
28960;SDS011;16068;42.896;20.868;2024-01-16T16:12:42;43.42;;;18.77;;
28960;SDS011;16068;42.896;20.868;2024-01-16T16:15:28;46.58;;;20.48;;
28960;SDS011;16068;42.896;20.868;2024-01-16T16:18:14;60.65;;;23.35;;
28960;SDS011;16068;42.896;20.868;2024-01-16T16:21:01;56.33;;;22.73;;
28960;SDS011;16068;42.896;20.868;2024-01-16T16:23:47;40.55;;;19.42;;
28960;SDS011;16068;42.896;20.868;2024-01-16T16:26:33;50.63;;;20.63;;
28960;SDS011;16068;42.896;20.868;2024-01-16T16:29:22;64.88;;;26.75;;
28960;SDS011;16068;42.896;20.868;2024-01-16T16:32:08;89.60;;;32.30;;
28960;SDS011;16068;42.896;20.868;2024-01-16T16:34:54;94.82;;;33.25;;
28960;SDS011;16068;42.896;20.868;2024-01-16T16:37:40;59.70;;;25.67;;
28960;SDS011;16068;42.896;20.868;2024-01-16T16:40:26;79.85;;;30.08;;
28960;SDS011;16068;42.896;20.868;2024-01-16T16:43:13;63.75;;;30.15;;
28960;SDS011;16068;42.896;20.868;2024-01-16T16:46:00;73.60;;;32.55;;
28960;SDS011;16068;42.896;20.868;2024-01-16T16:48:46;236.05;;;129.77;;
28960;SDS011;16068;42.896;20.868;2024-01-16T16:51:33;134.93;;;56.88;;
28960;SDS011;16068;42.896;20.868;2024-01-16T16:54:27;89.55;;;36.15;;
28960;SDS011;16068;42.896;20.868;2024-01-16T16:57:15;89.13;;;34.63;;
28960;SDS011;16068;42.896;20.868;2024-01-16T17:00:01;86.93;;;37.17;;
28960;SDS011;16068;42.896;20.868;2024-01-16T17:02:48;104.78;;;35.55;;
28960;SDS011;16068;42.896;20.868;2024-01-16T17:05:35;84.75;;;29.50;;
28960;SDS011;16068;42.896;20.868;2024-01-16T17:08:21;74.38;;;29.08;;
28960;SDS011;16068;42.896;20.868;2024-01-16T17:11:07;82.22;;;31.00;;
28960;SDS011;16068;42.896;20.868;2024-01-16T17:13:54;93.05;;;36.63;;
28960;SDS011;16068;42.896;20.868;2024-01-16T17:16:43;90.75;;;36.35;;
28960;SDS011;16068;42.896;20.868;2024-01-16T17:19:33;105.65;;;45.75;;
28960;SDS011;16068;42.896;20.868;2024-01-16T17:22:21;106.78;;;46.95;;
28960;SDS011;16068;42.896;20.868;2024-01-16T17:25:09;94.43;;;43.38;;